sensor_id;sensor_type;location;lat;lon;timestamp;temperature;humidity
14893;DHT22;7538;53.626;9.906;2023-06-01T00:01:54;12.90;99.90
14893;DHT22;7538;53.626;9.906;2023-06-01T00:04:21;12.90;99.90
14893;DHT22;7538;53.626;9.906;2023-06-01T00:06:49;12.80;99.90
14893;DHT22;7538;53.626;9.906;2023-06-01T00:09:16;12.80;99.90
14893;DHT22;7538;53.626;9.906;2023-06-01T00:11:43;12.70;99.90
14893;DHT22;7538;53.626;9.906;2023-06-01T00:14:10;12.80;99.90
14893;DHT22;7538;53.626;9.906;2023-06-01T00:16:37;12.80;99.90
14893;DHT22;7538;53.626;9.906;2023-06-01T00:19:04;12.90;99.90
14893;DHT22;7538;53.626;9.906;2023-06-01T00:21:31;13.00;99.90
14893;DHT22;7538;53.626;9.906;2023-06-01T00:24:02;12.90;99.90
14893;DHT22;7538;53.626;9.906;2023-06-01T00:26:29;13.00;99.90
14893;DHT22;7538;53.626;9.906;2023-06-01T00:28:57;13.00;99.90
14893;DHT22;7538;53.626;9.906;2023-06-01T00:31:24;13.10;99.90
14893;DHT22;7538;53.626;9.906;2023-06-01T00:33:51;13.00;99.90
14893;DHT22;7538;53.626;9.906;2023-06-01T00:36:18;13.00;99.90
14893;DHT22;7538;53.626;9.906;2023-06-01T00:38:45;13.00;99.90
14893;DHT22;7538;53.626;9.906;2023-06-01T00:41:13;13.00;99.90
14893;DHT22;7538;53.626;9.906;2023-06-01T00:43:40;13.10;99.90
14893;DHT22;7538;53.626;9.906;2023-06-01T00:46:07;13.10;99.90
14893;DHT22;7538;53.626;9.906;2023-06-01T00:48:35;13.10;99.90
14893;DHT22;7538;53.626;9.906;2023-06-01T00:51:02;13.20;99.90
14893;DHT22;7538;53.626;9.906;2023-06-01T00:53:29;13.10;99.90
14893;DHT22;7538;53.626;9.906;2023-06-01T00:55:56;13.00;99.90
14893;DHT22;7538;53.626;9.906;2023-06-01T00:58:24;13.00;99.90
14893;DHT22;7538;53.626;9.906;2023-06-01T01:00:51;12.90;99.90
14893;DHT22;7538;53.626;9.906;2023-06-01T01:03:19;12.90;99.90
14893;DHT22;7538;53.626;9.906;2023-06-01T01:05:47;12.80;99.90
14893;DHT22;7538;53.626;9.906;2023-06-01T01:08:20;12.80;99.90
14893;DHT22;7538;53.626;9.906;2023-06-01T01:10:55;12.80;99.90
14893;DHT22;7538;53.626;9.906;2023-06-01T01:13:27;12.70;99.90
14893;DHT22;7538;53.626;9.906;2023-06-01T01:16:03;12.70;99.90
14893;DHT22;7538;53.626;9.906;2023-06-01T01:18:36;12.70;99.90
14893;DHT22;7538;53.626;9.906;2023-06-01T01:21:04;12.80;99.90
14893;DHT22;7538;53.626;9.906;2023-06-01T01:24:14;12.70;99.90
14893;DHT22;7538;53.626;9.906;2023-06-01T01:26:51;12.70;99.90
14893;DHT22;7538;53.626;9.906;2023-06-01T01:29:21;12.70;99.90
14893;DHT22;7538;53.626;9.906;2023-06-01T01:31:50;12.70;99.90
14893;DHT22;7538;53.626;9.906;2023-06-01T01:34:18;12.70;99.90
14893;DHT22;7538;53.626;9.906;2023-06-01T01:36:46;12.70;99.90
14893;DHT22;7538;53.626;9.906;2023-06-01T01:39:13;12.70;99.90
14893;DHT22;7538;53.626;9.906;2023-06-01T01:41:40;12.60;99.90
14893;DHT22;7538;53.626;9.906;2023-06-01T01:44:07;12.70;99.90
14893;DHT22;7538;53.626;9.906;2023-06-01T01:46:43;12.60;99.90
14893;DHT22;7538;53.626;9.906;2023-06-01T01:49:16;12.70;99.90
14893;DHT22;7538;53.626;9.906;2023-06-01T01:51:54;12.70;99.90
14893;DHT22;7538;53.626;9.906;2023-06-01T01:54:24;12.70;99.90
14893;DHT22;7538;53.626;9.906;2023-06-01T01:56:53;12.60;99.90
14893;DHT22;7538;53.626;9.906;2023-06-01T01:59:23;12.60;99.90
14893;DHT22;7538;53.626;9.906;2023-06-01T02:01:53;12.70;99.90
14893;DHT22;7538;53.626;9.906;2023-06-01T02:04:21;10.50;99.90
14893;DHT22;7538;53.626;9.906;2023-06-01T02:06:48;12.60;99.90
14893;DHT22;7538;53.626;9.906;2023-06-01T02:09:15;12.60;99.90
14893;DHT22;7538;53.626;9.906;2023-06-01T02:11:42;12.60;99.90
14893;DHT22;7538;53.626;9.906;2023-06-01T02:14:10;12.60;99.90
14893;DHT22;7538;53.626;9.906;2023-06-01T02:16:36;12.60;99.90
14893;DHT22;7538;53.626;9.906;2023-06-01T02:19:05;12.60;99.90
14893;DHT22;7538;53.626;9.906;2023-06-01T02:21:36;12.60;99.90
14893;DHT22;7538;53.626;9.906;2023-06-01T02:24:03;12.60;99.90
14893;DHT22;7538;53.626;9.906;2023-06-01T02:26:33;12.60;99.90
14893;DHT22;7538;53.626;9.906;2023-06-01T02:29:00;12.60;99.90
14893;DHT22;7538;53.626;9.906;2023-06-01T02:31:30;12.60;99.90
14893;DHT22;7538;53.626;9.906;2023-06-01T02:33:57;12.60;99.90
14893;DHT22;7538;53.626;9.906;2023-06-01T02:36:25;12.70;99.90
14893;DHT22;7538;53.626;9.906;2023-06-01T02:38:53;12.70;99.90
14893;DHT22;7538;53.626;9.906;2023-06-01T02:41:20;12.80;99.90
14893;DHT22;7538;53.626;9.906;2023-06-01T02:43:47;12.70;99.90
14893;DHT22;7538;53.626;9.906;2023-06-01T02:46:16;12.80;99.90
14893;DHT22;7538;53.626;9.906;2023-06-01T02:48:42;12.70;99.90
14893;DHT22;7538;53.626;9.906;2023-06-01T02:51:09;12.70;99.90
14893;DHT22;7538;53.626;9.906;2023-06-01T02:53:39;12.70;99.90
14893;DHT22;7538;53.626;9.906;2023-06-01T02:56:06;12.60;99.90
14893;DHT22;7538;53.626;9.906;2023-06-01T02:58:32;12.60;99.90
14893;DHT22;7538;53.626;9.906;2023-06-01T03:00:59;12.50;99.90
14893;DHT22;7538;53.626;9.906;2023-06-01T03:03:26;12.50;99.90
14893;DHT22;7538;53.626;9.906;2023-06-01T03:05:54;12.60;99.90
14893;DHT22;7538;53.626;9.906;2023-06-01T03:08:21;12.60;99.90
14893;DHT22;7538;53.626;9.906;2023-06-01T03:10:51;12.70;99.90
14893;DHT22;7538;53.626;9.906;2023-06-01T03:13:18;12.70;99.90
14893;DHT22;7538;53.626;9.906;2023-06-01T03:15:45;12.70;99.90
14893;DHT22;7538;53.626;9.906;2023-06-01T03:18:12;12.70;99.90
14893;DHT22;7538;53.626;9.906;2023-06-01T03:20:39;12.70;99.90
14893;DHT22;7538;53.626;9.906;2023-06-01T03:23:06;12.80;99.90
14893;DHT22;7538;53.626;9.906;2023-06-01T03:25:33;12.80;99.90
14893;DHT22;7538;53.626;9.906;2023-06-01T03:28:01;12.80;99.90
14893;DHT22;7538;53.626;9.906;2023-06-01T03:30:28;12.70;99.90
14893;DHT22;7538;53.626;9.906;2023-06-01T03:32:56;12.70;99.90
14893;DHT22;7538;53.626;9.906;2023-06-01T03:35:23;12.70;99.90
14893;DHT22;7538;53.626;9.906;2023-06-01T03:37:50;12.80;99.90
14893;DHT22;7538;53.626;9.906;2023-06-01T03:40:16;12.70;99.90
14893;DHT22;7538;53.626;9.906;2023-06-01T03:42:45;12.70;99.90
14893;DHT22;7538;53.626;9.906;2023-06-01T03:45:14;12.70;99.90
14893;DHT22;7538;53.626;9.906;2023-06-01T03:47:42;12.70;99.90
14893;DHT22;7538;53.626;9.906;2023-06-01T03:50:09;12.80;99.90
14893;DHT22;7538;53.626;9.906;2023-06-01T03:52:37;12.80;99.90
14893;DHT22;7538;53.626;9.906;2023-06-01T03:55:05;12.90;99.90
14893;DHT22;7538;53.626;9.906;2023-06-01T03:57:34;12.80;99.90
14893;DHT22;7538;53.626;9.906;2023-06-01T04:00:01;12.80;99.90
14893;DHT22;7538;53.626;9.906;2023-06-01T04:02:47;12.90;99.90
14893;DHT22;7538;53.626;9.906;2023-06-01T04:05:15;12.90;99.90
14893;DHT22;7538;53.626;9.906;2023-06-01T04:07:43;12.90;99.90
14893;DHT22;7538;53.626;9.906;2023-06-01T04:10:11;13.00;99.90
14893;DHT22;7538;53.626;9.906;2023-06-01T04:12:40;13.00;99.90
14893;DHT22;7538;53.626;9.906;2023-06-01T04:15:08;13.00;99.90
14893;DHT22;7538;53.626;9.906;2023-06-01T04:17:36;13.10;99.90
14893;DHT22;7538;53.626;9.906;2023-06-01T04:20:08;13.00;99.90
14893;DHT22;7538;53.626;9.906;2023-06-01T04:22:36;13.00;99.90
14893;DHT22;7538;53.626;9.906;2023-06-01T04:25:05;13.00;99.90
14893;DHT22;7538;53.626;9.906;2023-06-01T04:27:32;13.00;99.90
14893;DHT22;7538;53.626;9.906;2023-06-01T04:30:03;13.10;99.90
14893;DHT22;7538;53.626;9.906;2023-06-01T04:32:33;13.10;99.90
14893;DHT22;7538;53.626;9.906;2023-06-01T04:35:00;13.00;99.90
14893;DHT22;7538;53.626;9.906;2023-06-01T04:37:32;13.00;99.90
14893;DHT22;7538;53.626;9.906;2023-06-01T04:40:00;13.10;99.90
14893;DHT22;7538;53.626;9.906;2023-06-01T04:42:27;13.10;99.90
14893;DHT22;7538;53.626;9.906;2023-06-01T04:44:55;13.00;99.90
14893;DHT22;7538;53.626;9.906;2023-06-01T04:47:24;13.00;99.90
14893;DHT22;7538;53.626;9.906;2023-06-01T04:49:50;12.90;99.90
14893;DHT22;7538;53.626;9.906;2023-06-01T04:52:17;12.90;99.90
14893;DHT22;7538;53.626;9.906;2023-06-01T04:54:46;12.90;99.90
14893;DHT22;7538;53.626;9.906;2023-06-01T04:57:13;13.10;99.90
14893;DHT22;7538;53.626;9.906;2023-06-01T04:59:40;13.00;99.90
14893;DHT22;7538;53.626;9.906;2023-06-01T05:02:07;13.10;99.90
14893;DHT22;7538;53.626;9.906;2023-06-01T05:04:34;13.10;99.90
14893;DHT22;7538;53.626;9.906;2023-06-01T05:07:01;13.20;99.90
14893;DHT22;7538;53.626;9.906;2023-06-01T05:09:28;13.20;99.90
14893;DHT22;7538;53.626;9.906;2023-06-01T05:11:56;13.20;99.90
14893;DHT22;7538;53.626;9.906;2023-06-01T05:14:23;13.30;99.90
14893;DHT22;7538;53.626;9.906;2023-06-01T05:16:50;13.40;99.90
14893;DHT22;7538;53.626;9.906;2023-06-01T05:19:17;13.40;99.90
14893;DHT22;7538;53.626;9.906;2023-06-01T05:21:44;13.50;99.90
14893;DHT22;7538;53.626;9.906;2023-06-01T05:24:11;13.50;99.90
14893;DHT22;7538;53.626;9.906;2023-06-01T05:26:37;13.60;99.90
14893;DHT22;7538;53.626;9.906;2023-06-01T05:29:05;16.40;99.90
14893;DHT22;7538;53.626;9.906;2023-06-01T05:31:32;13.60;99.90
14893;DHT22;7538;53.626;9.906;2023-06-01T05:34:00;13.40;99.90
14893;DHT22;7538;53.626;9.906;2023-06-01T05:36:27;13.50;99.90
14893;DHT22;7538;53.626;9.906;2023-06-01T05:38:54;13.50;99.90
14893;DHT22;7538;53.626;9.906;2023-06-01T05:41:21;13.60;99.90
14893;DHT22;7538;53.626;9.906;2023-06-01T05:43:48;13.60;99.90
14893;DHT22;7538;53.626;9.906;2023-06-01T05:46:17;13.50;99.90
14893;DHT22;7538;53.626;9.906;2023-06-01T05:48:44;13.60;99.90
14893;DHT22;7538;53.626;9.906;2023-06-01T05:51:11;13.60;99.90
14893;DHT22;7538;53.626;9.906;2023-06-01T05:53:38;13.60;99.90
14893;DHT22;7538;53.626;9.906;2023-06-01T05:56:06;13.80;99.90
14893;DHT22;7538;53.626;9.906;2023-06-01T05:58:33;13.50;99.90
14893;DHT22;7538;53.626;9.906;2023-06-01T06:01:00;13.50;99.90
14893;DHT22;7538;53.626;9.906;2023-06-01T06:03:28;13.40;99.90
14893;DHT22;7538;53.626;9.906;2023-06-01T06:05:55;13.40;99.90
14893;DHT22;7538;53.626;9.906;2023-06-01T06:08:22;13.40;99.90
14893;DHT22;7538;53.626;9.906;2023-06-01T06:10:49;14.00;99.90
14893;DHT22;7538;53.626;9.906;2023-06-01T06:13:16;13.50;99.90
14893;DHT22;7538;53.626;9.906;2023-06-01T06:15:43;13.40;99.90
14893;DHT22;7538;53.626;9.906;2023-06-01T06:18:10;13.40;99.90
14893;DHT22;7538;53.626;9.906;2023-06-01T06:20:38;13.50;99.90
14893;DHT22;7538;53.626;9.906;2023-06-01T06:23:05;13.60;99.90
14893;DHT22;7538;53.626;9.906;2023-06-01T06:25:32;13.70;99.90
14893;DHT22;7538;53.626;9.906;2023-06-01T06:27:58;13.80;99.90
14893;DHT22;7538;53.626;9.906;2023-06-01T06:30:25;15.40;99.90
14893;DHT22;7538;53.626;9.906;2023-06-01T06:32:52;13.90;99.90
14893;DHT22;7538;53.626;9.906;2023-06-01T06:35:19;14.00;99.90
14893;DHT22;7538;53.626;9.906;2023-06-01T06:37:47;14.00;99.90
14893;DHT22;7538;53.626;9.906;2023-06-01T06:40:14;14.00;99.90
14893;DHT22;7538;53.626;9.906;2023-06-01T06:42:43;14.10;99.90
14893;DHT22;7538;53.626;9.906;2023-06-01T06:45:10;14.10;99.90
14893;DHT22;7538;53.626;9.906;2023-06-01T06:47:37;14.30;99.90
14893;DHT22;7538;53.626;9.906;2023-06-01T06:50:05;14.20;99.90
14893;DHT22;7538;53.626;9.906;2023-06-01T06:52:33;14.20;99.90
14893;DHT22;7538;53.626;9.906;2023-06-01T06:55:01;14.20;99.90
14893;DHT22;7538;53.626;9.906;2023-06-01T06:57:28;14.30;99.90
14893;DHT22;7538;53.626;9.906;2023-06-01T06:59:55;14.40;99.90
14893;DHT22;7538;53.626;9.906;2023-06-01T07:02:22;14.50;99.90
14893;DHT22;7538;53.626;9.906;2023-06-01T07:04:50;14.60;99.90
14893;DHT22;7538;53.626;9.906;2023-06-01T07:07:17;14.60;99.90
14893;DHT22;7538;53.626;9.906;2023-06-01T07:09:44;14.60;99.90
14893;DHT22;7538;53.626;9.906;2023-06-01T07:12:12;14.80;99.90
14893;DHT22;7538;53.626;9.906;2023-06-01T07:14:39;14.60;99.90
14893;DHT22;7538;53.626;9.906;2023-06-01T07:17:06;14.60;99.90
14893;DHT22;7538;53.626;9.906;2023-06-01T07:19:34;14.60;99.90
14893;DHT22;7538;53.626;9.906;2023-06-01T07:22:01;14.70;99.90
14893;DHT22;7538;53.626;9.906;2023-06-01T07:24:28;14.70;99.90
14893;DHT22;7538;53.626;9.906;2023-06-01T07:26:55;15.30;99.90
14893;DHT22;7538;53.626;9.906;2023-06-01T07:29:24;14.60;99.90
14893;DHT22;7538;53.626;9.906;2023-06-01T07:31:52;14.60;99.90
14893;DHT22;7538;53.626;9.906;2023-06-01T07:34:19;14.60;99.90
14893;DHT22;7538;53.626;9.906;2023-06-01T07:36:46;14.70;99.90
14893;DHT22;7538;53.626;9.906;2023-06-01T07:39:14;14.70;99.90
14893;DHT22;7538;53.626;9.906;2023-06-01T07:41:41;13.00;99.90
14893;DHT22;7538;53.626;9.906;2023-06-01T07:44:10;14.70;99.90
14893;DHT22;7538;53.626;9.906;2023-06-01T07:46:39;14.80;99.90
14893;DHT22;7538;53.626;9.906;2023-06-01T07:49:06;14.80;99.90
14893;DHT22;7538;53.626;9.906;2023-06-01T07:51:32;14.90;99.90
14893;DHT22;7538;53.626;9.906;2023-06-01T07:53:59;15.00;99.90
14893;DHT22;7538;53.626;9.906;2023-06-01T07:56:27;15.10;99.90
14893;DHT22;7538;53.626;9.906;2023-06-01T07:58:54;15.20;99.90
14893;DHT22;7538;53.626;9.906;2023-06-01T08:01:21;15.30;99.90
14893;DHT22;7538;53.626;9.906;2023-06-01T08:03:49;15.30;99.90
14893;DHT22;7538;53.626;9.906;2023-06-01T08:06:16;15.40;99.90
14893;DHT22;7538;53.626;9.906;2023-06-01T08:08:43;15.50;99.90
14893;DHT22;7538;53.626;9.906;2023-06-01T08:11:11;15.60;99.90
14893;DHT22;7538;53.626;9.906;2023-06-01T08:13:38;15.60;99.90
14893;DHT22;7538;53.626;9.906;2023-06-01T08:16:06;15.90;99.90
14893;DHT22;7538;53.626;9.906;2023-06-01T08:18:33;16.00;99.90
14893;DHT22;7538;53.626;9.906;2023-06-01T08:21:02;15.90;99.90
14893;DHT22;7538;53.626;9.906;2023-06-01T08:23:29;15.70;99.90
14893;DHT22;7538;53.626;9.906;2023-06-01T08:25:56;15.70;99.90
14893;DHT22;7538;53.626;9.906;2023-06-01T08:28:23;15.80;99.90
14893;DHT22;7538;53.626;9.906;2023-06-01T08:30:50;15.80;99.90
14893;DHT22;7538;53.626;9.906;2023-06-01T08:33:17;15.80;99.90
14893;DHT22;7538;53.626;9.906;2023-06-01T08:35:44;15.80;99.90
14893;DHT22;7538;53.626;9.906;2023-06-01T08:38:12;15.80;99.90
14893;DHT22;7538;53.626;9.906;2023-06-01T08:40:39;16.00;99.90
14893;DHT22;7538;53.626;9.906;2023-06-01T08:43:13;15.80;99.90
14893;DHT22;7538;53.626;9.906;2023-06-01T08:45:41;15.80;99.90
14893;DHT22;7538;53.626;9.906;2023-06-01T08:48:14;15.90;99.90
14893;DHT22;7538;53.626;9.906;2023-06-01T08:50:41;16.00;99.90
14893;DHT22;7538;53.626;9.906;2023-06-01T08:53:09;16.00;99.90
14893;DHT22;7538;53.626;9.906;2023-06-01T08:55:37;16.10;99.90
14893;DHT22;7538;53.626;9.906;2023-06-01T08:58:04;16.20;99.90
14893;DHT22;7538;53.626;9.906;2023-06-01T09:00:31;16.30;99.90
14893;DHT22;7538;53.626;9.906;2023-06-01T09:02:59;16.30;99.90
14893;DHT22;7538;53.626;9.906;2023-06-01T09:05:26;16.30;99.90
14893;DHT22;7538;53.626;9.906;2023-06-01T09:07:53;16.30;99.90
14893;DHT22;7538;53.626;9.906;2023-06-01T09:10:23;16.20;99.90
14893;DHT22;7538;53.626;9.906;2023-06-01T09:12:54;16.20;99.90
14893;DHT22;7538;53.626;9.906;2023-06-01T09:15:21;16.30;99.90
14893;DHT22;7538;53.626;9.906;2023-06-01T09:17:49;16.20;99.90
14893;DHT22;7538;53.626;9.906;2023-06-01T09:20:23;16.30;99.90
14893;DHT22;7538;53.626;9.906;2023-06-01T09:22:51;16.30;99.90
14893;DHT22;7538;53.626;9.906;2023-06-01T09:25:25;16.40;99.90
14893;DHT22;7538;53.626;9.906;2023-06-01T09:27:57;16.50;99.90
14893;DHT22;7538;53.626;9.906;2023-06-01T09:30:25;16.70;99.90
14893;DHT22;7538;53.626;9.906;2023-06-01T09:33:08;16.60;99.90
14893;DHT22;7538;53.626;9.906;2023-06-01T09:35:41;16.60;99.90
14893;DHT22;7538;53.626;9.906;2023-06-01T09:38:09;16.50;99.90
14893;DHT22;7538;53.626;9.906;2023-06-01T09:40:37;16.60;99.90
14893;DHT22;7538;53.626;9.906;2023-06-01T09:43:19;16.60;99.90
14893;DHT22;7538;53.626;9.906;2023-06-01T09:46:03;16.70;99.90
14893;DHT22;7538;53.626;9.906;2023-06-01T09:48:31;16.90;99.90
14893;DHT22;7538;53.626;9.906;2023-06-01T09:50:58;16.90;99.50
14893;DHT22;7538;53.626;9.906;2023-06-01T09:53:25;16.90;99.20
14893;DHT22;7538;53.626;9.906;2023-06-01T09:55:57;16.90;99.50
14893;DHT22;7538;53.626;9.906;2023-06-01T09:58:26;17.00;99.20
14893;DHT22;7538;53.626;9.906;2023-06-01T10:00:53;17.10;98.80
14893;DHT22;7538;53.626;9.906;2023-06-01T10:03:21;17.30;98.20
14893;DHT22;7538;53.626;9.906;2023-06-01T10:05:49;17.40;98.00
14893;DHT22;7538;53.626;9.906;2023-06-01T10:08:17;17.60;97.80
14893;DHT22;7538;53.626;9.906;2023-06-01T10:10:47;17.70;97.20
14893;DHT22;7538;53.626;9.906;2023-06-01T10:13:14;17.80;96.70
14893;DHT22;7538;53.626;9.906;2023-06-01T10:15:43;17.90;96.40
14893;DHT22;7538;53.626;9.906;2023-06-01T10:18:10;17.90;96.20
14893;DHT22;7538;53.626;9.906;2023-06-01T10:20:37;18.00;96.20
14893;DHT22;7538;53.626;9.906;2023-06-01T10:23:05;18.00;95.70
14893;DHT22;7538;53.626;9.906;2023-06-01T10:25:38;18.30;95.40
14893;DHT22;7538;53.626;9.906;2023-06-01T10:28:10;18.50;94.80
14893;DHT22;7538;53.626;9.906;2023-06-01T10:30:37;16.60;93.70
14893;DHT22;7538;53.626;9.906;2023-06-01T10:33:06;19.00;93.80
14893;DHT22;7538;53.626;9.906;2023-06-01T10:36:00;19.10;93.50
14893;DHT22;7538;53.626;9.906;2023-06-01T10:38:28;19.40;93.00
14893;DHT22;7538;53.626;9.906;2023-06-01T10:41:24;19.50;92.60
14893;DHT22;7538;53.626;9.906;2023-06-01T10:43:52;19.50;92.20
14893;DHT22;7538;53.626;9.906;2023-06-01T10:46:39;19.40;92.00
14893;DHT22;7538;53.626;9.906;2023-06-01T10:49:08;19.30;92.40
14893;DHT22;7538;53.626;9.906;2023-06-01T10:51:35;19.30;92.50
14893;DHT22;7538;53.626;9.906;2023-06-01T10:54:24;19.00;92.90
14893;DHT22;7538;53.626;9.906;2023-06-01T10:57:19;18.90;93.50
14893;DHT22;7538;53.626;9.906;2023-06-01T11:00:10;18.70;93.80
14893;DHT22;7538;53.626;9.906;2023-06-01T11:02:43;18.60;94.20
14893;DHT22;7538;53.626;9.906;2023-06-01T11:05:43;18.50;94.20
14893;DHT22;7538;53.626;9.906;2023-06-01T11:08:49;18.30;94.20
14893;DHT22;7538;53.626;9.906;2023-06-01T11:11:17;18.10;94.80
14893;DHT22;7538;53.626;9.906;2023-06-01T11:14:05;17.90;95.10
14893;DHT22;7538;53.626;9.906;2023-06-01T11:16:33;17.70;95.40
14893;DHT22;7538;53.626;9.906;2023-06-01T11:19:02;17.60;95.90
14893;DHT22;7538;53.626;9.906;2023-06-01T11:21:35;17.60;96.20
14893;DHT22;7538;53.626;9.906;2023-06-01T11:24:06;17.50;96.60
14893;DHT22;7538;53.626;9.906;2023-06-01T11:26:35;17.50;96.30
14893;DHT22;7538;53.626;9.906;2023-06-01T11:29:05;17.50;96.40
14893;DHT22;7538;53.626;9.906;2023-06-01T11:31:37;17.70;96.10
14893;DHT22;7538;53.626;9.906;2023-06-01T11:34:05;17.80;95.40
14893;DHT22;7538;53.626;9.906;2023-06-01T11:36:38;17.90;95.10
14893;DHT22;7538;53.626;9.906;2023-06-01T11:39:05;18.00;95.40
14893;DHT22;7538;53.626;9.906;2023-06-01T11:41:34;18.10;95.20
14893;DHT22;7538;53.626;9.906;2023-06-01T11:44:02;18.10;95.30
14893;DHT22;7538;53.626;9.906;2023-06-01T11:46:29;18.10;95.40
14893;DHT22;7538;53.626;9.906;2023-06-01T11:49:00;17.90;95.60
14893;DHT22;7538;53.626;9.906;2023-06-01T11:51:28;17.80;96.00
14893;DHT22;7538;53.626;9.906;2023-06-01T11:53:57;17.80;96.40
14893;DHT22;7538;53.626;9.906;2023-06-01T11:56:30;17.70;96.30
14893;DHT22;7538;53.626;9.906;2023-06-01T11:58:58;17.70;96.50
14893;DHT22;7538;53.626;9.906;2023-06-01T12:01:25;18.00;95.60
14893;DHT22;7538;53.626;9.906;2023-06-01T12:03:52;18.00;94.90
14893;DHT22;7538;53.626;9.906;2023-06-01T12:06:20;18.10;94.60
14893;DHT22;7538;53.626;9.906;2023-06-01T12:08:49;18.20;94.80
14893;DHT22;7538;53.626;9.906;2023-06-01T12:11:19;18.40;94.80
14893;DHT22;7538;53.626;9.906;2023-06-01T12:13:48;18.60;94.30
14893;DHT22;7538;53.626;9.906;2023-06-01T12:16:15;18.70;93.70
14893;DHT22;7538;53.626;9.906;2023-06-01T12:18:43;18.80;93.50
14893;DHT22;7538;53.626;9.906;2023-06-01T12:21:11;19.00;93.30
14893;DHT22;7538;53.626;9.906;2023-06-01T12:23:38;19.30;93.00
14893;DHT22;7538;53.626;9.906;2023-06-01T12:26:05;19.40;92.60
14893;DHT22;7538;53.626;9.906;2023-06-01T12:28:50;19.30;92.50
14893;DHT22;7538;53.626;9.906;2023-06-01T12:31:18;19.30;93.00
14893;DHT22;7538;53.626;9.906;2023-06-01T12:33:46;16.70;92.00
14893;DHT22;7538;53.626;9.906;2023-06-01T12:36:29;19.20;92.50
14893;DHT22;7538;53.626;9.906;2023-06-01T12:38:57;19.20;92.70
14893;DHT22;7538;53.626;9.906;2023-06-01T12:41:25;19.30;92.50
14893;DHT22;7538;53.626;9.906;2023-06-01T12:43:54;19.20;92.40
14893;DHT22;7538;53.626;9.906;2023-06-01T12:46:22;19.20;92.70
14893;DHT22;7538;53.626;9.906;2023-06-01T12:48:51;19.30;92.60
14893;DHT22;7538;53.626;9.906;2023-06-01T12:51:18;19.40;92.00
14893;DHT22;7538;53.626;9.906;2023-06-01T12:53:45;19.30;92.20
14893;DHT22;7538;53.626;9.906;2023-06-01T12:56:13;19.10;92.60
14893;DHT22;7538;53.626;9.906;2023-06-01T12:58:40;19.00;92.90
14893;DHT22;7538;53.626;9.906;2023-06-01T13:01:08;18.80;93.10
14893;DHT22;7538;53.626;9.906;2023-06-01T13:03:35;18.90;93.60
14893;DHT22;7538;53.626;9.906;2023-06-01T13:06:02;18.90;93.60
14893;DHT22;7538;53.626;9.906;2023-06-01T13:08:29;18.90;93.70
14893;DHT22;7538;53.626;9.906;2023-06-01T13:10:57;19.00;93.60
14893;DHT22;7538;53.626;9.906;2023-06-01T13:13:24;19.00;93.50
14893;DHT22;7538;53.626;9.906;2023-06-01T13:15:50;19.00;93.40
14893;DHT22;7538;53.626;9.906;2023-06-01T13:18:18;19.00;93.40
14893;DHT22;7538;53.626;9.906;2023-06-01T13:20:45;19.00;93.30
14893;DHT22;7538;53.626;9.906;2023-06-01T13:23:12;18.90;93.50
14893;DHT22;7538;53.626;9.906;2023-06-01T13:25:40;19.10;93.30
14893;DHT22;7538;53.626;9.906;2023-06-01T13:28:07;19.20;93.10
14893;DHT22;7538;53.626;9.906;2023-06-01T13:30:34;19.30;92.90
14893;DHT22;7538;53.626;9.906;2023-06-01T13:33:01;19.20;92.90
14893;DHT22;7538;53.626;9.906;2023-06-01T13:35:30;19.20;92.80
14893;DHT22;7538;53.626;9.906;2023-06-01T13:37:57;19.20;93.00
14893;DHT22;7538;53.626;9.906;2023-06-01T13:40:25;19.20;93.00
14893;DHT22;7538;53.626;9.906;2023-06-01T13:42:53;19.10;92.80
14893;DHT22;7538;53.626;9.906;2023-06-01T13:45:20;19.00;93.30
14893;DHT22;7538;53.626;9.906;2023-06-01T13:47:48;19.00;93.10
14893;DHT22;7538;53.626;9.906;2023-06-01T13:50:16;18.80;92.90
14893;DHT22;7538;53.626;9.906;2023-06-01T13:52:44;18.60;93.10
14893;DHT22;7538;53.626;9.906;2023-06-01T13:55:12;18.40;93.30
14893;DHT22;7538;53.626;9.906;2023-06-01T13:57:40;18.30;93.80
14893;DHT22;7538;53.626;9.906;2023-06-01T14:00:08;18.30;94.30
14893;DHT22;7538;53.626;9.906;2023-06-01T14:02:36;18.30;93.90
14893;DHT22;7538;53.626;9.906;2023-06-01T14:05:03;18.30;93.90
14893;DHT22;7538;53.626;9.906;2023-06-01T14:07:30;18.30;94.00
14893;DHT22;7538;53.626;9.906;2023-06-01T14:09:58;18.30;94.20
14893;DHT22;7538;53.626;9.906;2023-06-01T14:12:25;18.40;93.40
14893;DHT22;7538;53.626;9.906;2023-06-01T14:14:52;18.40;93.60
14893;DHT22;7538;53.626;9.906;2023-06-01T14:17:19;18.40;93.60
14893;DHT22;7538;53.626;9.906;2023-06-01T14:19:46;18.30;93.30
14893;DHT22;7538;53.626;9.906;2023-06-01T14:22:12;18.20;93.60
14893;DHT22;7538;53.626;9.906;2023-06-01T14:24:39;18.00;94.20
14893;DHT22;7538;53.626;9.906;2023-06-01T14:27:08;17.90;94.30
14893;DHT22;7538;53.626;9.906;2023-06-01T14:29:35;17.80;94.40
14893;DHT22;7538;53.626;9.906;2023-06-01T14:32:02;17.80;94.70
14893;DHT22;7538;53.626;9.906;2023-06-01T14:34:29;17.80;94.80
14893;DHT22;7538;53.626;9.906;2023-06-01T14:36:55;17.80;94.40
14893;DHT22;7538;53.626;9.906;2023-06-01T14:39:23;17.70;94.80
14893;DHT22;7538;53.626;9.906;2023-06-01T14:41:50;17.70;95.20
14893;DHT22;7538;53.626;9.906;2023-06-01T14:44:18;17.70;94.90
14893;DHT22;7538;53.626;9.906;2023-06-01T14:46:45;17.90;95.00
14893;DHT22;7538;53.626;9.906;2023-06-01T14:49:12;17.90;94.50
14893;DHT22;7538;53.626;9.906;2023-06-01T14:51:39;17.90;94.80
14893;DHT22;7538;53.626;9.906;2023-06-01T14:54:06;17.90;94.40
14893;DHT22;7538;53.626;9.906;2023-06-01T14:56:33;17.60;94.10
14893;DHT22;7538;53.626;9.906;2023-06-01T14:59:00;17.50;94.40
14893;DHT22;7538;53.626;9.906;2023-06-01T15:01:28;17.30;94.90
14893;DHT22;7538;53.626;9.906;2023-06-01T15:03:55;17.20;95.40
14893;DHT22;7538;53.626;9.906;2023-06-01T15:06:22;17.00;96.10
14893;DHT22;7538;53.626;9.906;2023-06-01T15:08:48;17.00;96.30
14893;DHT22;7538;53.626;9.906;2023-06-01T15:11:15;17.00;96.10
14893;DHT22;7538;53.626;9.906;2023-06-01T15:13:42;17.00;96.30
14893;DHT22;7538;53.626;9.906;2023-06-01T15:16:12;17.80;96.60
14893;DHT22;7538;53.626;9.906;2023-06-01T15:18:40;17.10;95.80
14893;DHT22;7538;53.626;9.906;2023-06-01T15:21:07;17.30;96.00
14893;DHT22;7538;53.626;9.906;2023-06-01T15:23:34;17.20;95.50
14893;DHT22;7538;53.626;9.906;2023-06-01T15:26:01;16.90;95.30
14893;DHT22;7538;53.626;9.906;2023-06-01T15:28:28;16.90;95.70
14893;DHT22;7538;53.626;9.906;2023-06-01T15:30:55;17.00;95.40
14893;DHT22;7538;53.626;9.906;2023-06-01T15:33:22;17.10;95.50
14893;DHT22;7538;53.626;9.906;2023-06-01T15:35:50;17.20;95.40
14893;DHT22;7538;53.626;9.906;2023-06-01T15:38:17;17.20;95.20
14893;DHT22;7538;53.626;9.906;2023-06-01T15:40:45;17.10;94.60
14893;DHT22;7538;53.626;9.906;2023-06-01T15:43:12;17.00;94.80
14893;DHT22;7538;53.626;9.906;2023-06-01T15:45:39;16.80;95.00
14893;DHT22;7538;53.626;9.906;2023-06-01T15:48:06;16.60;95.60
14893;DHT22;7538;53.626;9.906;2023-06-01T15:50:34;16.40;95.70
14893;DHT22;7538;53.626;9.906;2023-06-01T15:53:03;16.30;95.60
14893;DHT22;7538;53.626;9.906;2023-06-01T15:55:30;16.20;95.70